sensor_id;sensor_type;location;lat;lon;timestamp;temperature;humidity
56240;DHT22;42154;51.992;5.896;2023-02-14T00:02:05;6.10;99.90
56240;DHT22;42154;51.992;5.896;2023-02-14T00:04:31;6.10;99.90
56240;DHT22;42154;51.992;5.896;2023-02-14T00:06:57;6.00;99.90
56240;DHT22;42154;51.992;5.896;2023-02-14T00:09:22;6.00;99.90
56240;DHT22;42154;51.992;5.896;2023-02-14T00:11:48;5.90;99.90
56240;DHT22;42154;51.992;5.896;2023-02-14T00:14:15;6.00;99.90
56240;DHT22;42154;51.992;5.896;2023-02-14T00:17:00;5.90;99.90
56240;DHT22;42154;51.992;5.896;2023-02-14T00:19:26;5.90;99.90
56240;DHT22;42154;51.992;5.896;2023-02-14T00:21:52;5.80;99.90
56240;DHT22;42154;51.992;5.896;2023-02-14T00:24:24;5.90;99.90
56240;DHT22;42154;51.992;5.896;2023-02-14T00:26:51;5.80;99.90
56240;DHT22;42154;51.992;5.896;2023-02-14T00:29:20;5.90;99.90
56240;DHT22;42154;51.992;5.896;2023-02-14T00:31:46;5.90;99.90
56240;DHT22;42154;51.992;5.896;2023-02-14T00:34:14;5.80;99.90
56240;DHT22;42154;51.992;5.896;2023-02-14T00:36:40;5.80;99.90
56240;DHT22;42154;51.992;5.896;2023-02-14T00:39:09;5.80;99.90
56240;DHT22;42154;51.992;5.896;2023-02-14T00:41:36;5.80;99.90
56240;DHT22;42154;51.992;5.896;2023-02-14T00:44:02;5.80;99.90
56240;DHT22;42154;51.992;5.896;2023-02-14T00:46:28;5.80;99.90
56240;DHT22;42154;51.992;5.896;2023-02-14T00:48:54;5.90;99.90
56240;DHT22;42154;51.992;5.896;2023-02-14T00:51:20;5.80;99.90
56240;DHT22;42154;51.992;5.896;2023-02-14T00:53:48;5.90;99.90
56240;DHT22;42154;51.992;5.896;2023-02-14T00:56:14;5.80;99.90
56240;DHT22;42154;51.992;5.896;2023-02-14T00:58:41;5.90;99.90
56240;DHT22;42154;51.992;5.896;2023-02-14T01:01:08;5.80;99.90
56240;DHT22;42154;51.992;5.896;2023-02-14T01:03:34;5.80;99.90
56240;DHT22;42154;51.992;5.896;2023-02-14T01:06:00;5.80;99.90
56240;DHT22;42154;51.992;5.896;2023-02-14T01:08:29;5.70;99.90
56240;DHT22;42154;51.992;5.896;2023-02-14T01:10:55;5.70;99.90
56240;DHT22;42154;51.992;5.896;2023-02-14T01:13:21;5.80;99.90
56240;DHT22;42154;51.992;5.896;2023-02-14T01:15:49;5.70;99.90
56240;DHT22;42154;51.992;5.896;2023-02-14T01:18:16;5.70;99.90
56240;DHT22;42154;51.992;5.896;2023-02-14T01:20:42;5.70;99.90
56240;DHT22;42154;51.992;5.896;2023-02-14T01:23:08;5.60;99.90
56240;DHT22;42154;51.992;5.896;2023-02-14T01:25:36;5.70;99.90
56240;DHT22;42154;51.992;5.896;2023-02-14T01:28:03;5.60;99.90
56240;DHT22;42154;51.992;5.896;2023-02-14T01:30:29;5.60;99.90
56240;DHT22;42154;51.992;5.896;2023-02-14T01:32:55;5.60;99.90
56240;DHT22;42154;51.992;5.896;2023-02-14T01:35:21;5.50;99.90
56240;DHT22;42154;51.992;5.896;2023-02-14T01:37:46;5.50;99.90
56240;DHT22;42154;51.992;5.896;2023-02-14T01:40:13;5.40;99.90
56240;DHT22;42154;51.992;5.896;2023-02-14T01:42:42;5.40;99.90
56240;DHT22;42154;51.992;5.896;2023-02-14T01:45:18;5.40;99.90
56240;DHT22;42154;51.992;5.896;2023-02-14T01:47:48;5.40;99.90
56240;DHT22;42154;51.992;5.896;2023-02-14T01:50:36;5.30;99.90
56240;DHT22;42154;51.992;5.896;2023-02-14T01:53:15;5.30;99.90
56240;DHT22;42154;51.992;5.896;2023-02-14T01:55:46;5.50;99.90
56240;DHT22;42154;51.992;5.896;2023-02-14T01:58:23;5.30;99.90
56240;DHT22;42154;51.992;5.896;2023-02-14T02:00:50;5.30;99.90
56240;DHT22;42154;51.992;5.896;2023-02-14T02:03:33;5.20;99.90
56240;DHT22;42154;51.992;5.896;2023-02-14T02:06:14;5.20;99.90
56240;DHT22;42154;51.992;5.896;2023-02-14T02:09:34;5.20;99.90
56240;DHT22;42154;51.992;5.896;2023-02-14T02:11:40;5.20;99.90
56240;DHT22;42154;51.992;5.896;2023-02-14T02:14:12;5.10;99.90
56240;DHT22;42154;51.992;5.896;2023-02-14T02:36:28;5.00;99.90
56240;DHT22;42154;51.992;5.896;2023-02-14T02:44:17;4.90;99.90
56240;DHT22;42154;51.992;5.896;2023-02-14T02:47:06;4.90;99.90
56240;DHT22;42154;51.992;5.896;2023-02-14T02:49:40;4.90;99.90
56240;DHT22;42154;51.992;5.896;2023-02-14T02:55:52;4.90;99.90
56240;DHT22;42154;51.992;5.896;2023-02-14T02:58:54;4.90;99.90
56240;DHT22;42154;51.992;5.896;2023-02-14T03:01:25;4.80;99.90
56240;DHT22;42154;51.992;5.896;2023-02-14T03:04:06;4.80;99.90
56240;DHT22;42154;51.992;5.896;2023-02-14T03:06:52;4.80;99.90
56240;DHT22;42154;51.992;5.896;2023-02-14T03:11:59;4.80;99.90
56240;DHT22;42154;51.992;5.896;2023-02-14T03:14:38;4.80;99.90
56240;DHT22;42154;51.992;5.896;2023-02-14T03:17:35;4.80;99.90
56240;DHT22;42154;51.992;5.896;2023-02-14T03:20:06;4.70;99.90
56240;DHT22;42154;51.992;5.896;2023-02-14T03:30:41;4.80;99.90
56240;DHT22;42154;51.992;5.896;2023-02-14T03:33:32;4.70;99.90
56240;DHT22;42154;51.992;5.896;2023-02-14T03:36:15;4.70;99.90
56240;DHT22;42154;51.992;5.896;2023-02-14T03:39:42;4.70;99.90
56240;DHT22;42154;51.992;5.896;2023-02-14T03:41:53;4.60;99.90
56240;DHT22;42154;51.992;5.896;2023-02-14T03:44:22;4.60;99.90
56240;DHT22;42154;51.992;5.896;2023-02-14T03:46:59;4.60;99.90
56240;DHT22;42154;51.992;5.896;2023-02-14T03:49:29;4.60;99.90
56240;DHT22;42154;51.992;5.896;2023-02-14T03:51:58;4.60;99.90
56240;DHT22;42154;51.992;5.896;2023-02-14T03:54:26;4.60;99.90
56240;DHT22;42154;51.992;5.896;2023-02-14T03:57:01;4.50;99.90
56240;DHT22;42154;51.992;5.896;2023-02-14T03:59:28;4.50;99.90
56240;DHT22;42154;51.992;5.896;2023-02-14T04:02:10;4.50;99.90
56240;DHT22;42154;51.992;5.896;2023-02-14T04:04:42;4.50;99.90
56240;DHT22;42154;51.992;5.896;2023-02-14T04:07:14;4.50;99.90
56240;DHT22;42154;51.992;5.896;2023-02-14T04:09:40;4.50;99.90
56240;DHT22;42154;51.992;5.896;2023-02-14T04:12:06;4.50;99.90
56240;DHT22;42154;51.992;5.896;2023-02-14T04:14:31;4.50;99.90
56240;DHT22;42154;51.992;5.896;2023-02-14T04:16:57;4.50;99.90
56240;DHT22;42154;51.992;5.896;2023-02-14T04:19:42;4.50;99.90
56240;DHT22;42154;51.992;5.896;2023-02-14T04:22:08;4.50;99.90
56240;DHT22;42154;51.992;5.896;2023-02-14T04:24:34;4.40;99.90
56240;DHT22;42154;51.992;5.896;2023-02-14T04:26:59;4.40;99.90
56240;DHT22;42154;51.992;5.896;2023-02-14T04:29:35;4.50;99.90
56240;DHT22;42154;51.992;5.896;2023-02-14T04:32:02;4.40;99.90
56240;DHT22;42154;51.992;5.896;2023-02-14T04:34:28;4.40;99.90
56240;DHT22;42154;51.992;5.896;2023-02-14T04:36:54;4.40;99.90
56240;DHT22;42154;51.992;5.896;2023-02-14T04:39:19;4.40;99.90
56240;DHT22;42154;51.992;5.896;2023-02-14T04:41:45;4.40;99.90
56240;DHT22;42154;51.992;5.896;2023-02-14T04:44:11;4.40;99.90
56240;DHT22;42154;51.992;5.896;2023-02-14T04:46:36;4.40;99.90
56240;DHT22;42154;51.992;5.896;2023-02-14T04:49:02;4.30;99.90
56240;DHT22;42154;51.992;5.896;2023-02-14T04:51:28;4.30;99.90
56240;DHT22;42154;51.992;5.896;2023-02-14T04:53:53;4.30;99.90
56240;DHT22;42154;51.992;5.896;2023-02-14T04:56:19;4.30;99.90
56240;DHT22;42154;51.992;5.896;2023-02-14T04:58:45;4.30;99.90
56240;DHT22;42154;51.992;5.896;2023-02-14T05:01:11;4.30;99.90
56240;DHT22;42154;51.992;5.896;2023-02-14T05:03:36;4.30;99.90
56240;DHT22;42154;51.992;5.896;2023-02-14T05:06:02;4.30;99.90
56240;DHT22;42154;51.992;5.896;2023-02-14T05:08:28;4.30;99.90
56240;DHT22;42154;51.992;5.896;2023-02-14T05:10:54;4.20;99.90
56240;DHT22;42154;51.992;5.896;2023-02-14T05:13:19;4.30;99.90
56240;DHT22;42154;51.992;5.896;2023-02-14T05:15:45;4.30;99.90
56240;DHT22;42154;51.992;5.896;2023-02-14T05:18:11;4.30;99.90
56240;DHT22;42154;51.992;5.896;2023-02-14T05:20:37;4.30;99.90
56240;DHT22;42154;51.992;5.896;2023-02-14T05:23:02;4.20;99.90
56240;DHT22;42154;51.992;5.896;2023-02-14T05:25:30;4.20;99.90
56240;DHT22;42154;51.992;5.896;2023-02-14T05:27:56;4.20;99.90
56240;DHT22;42154;51.992;5.896;2023-02-14T05:30:22;4.20;99.90
56240;DHT22;42154;51.992;5.896;2023-02-14T05:32:52;4.10;99.90
56240;DHT22;42154;51.992;5.896;2023-02-14T05:35:18;4.30;99.90
56240;DHT22;42154;51.992;5.896;2023-02-14T05:37:44;4.10;99.90
56240;DHT22;42154;51.992;5.896;2023-02-14T05:40:10;4.10;99.90
56240;DHT22;42154;51.992;5.896;2023-02-14T05:42:38;4.10;99.90
56240;DHT22;42154;51.992;5.896;2023-02-14T05:45:05;4.10;99.90
56240;DHT22;42154;51.992;5.896;2023-02-14T05:47:31;4.10;99.90
56240;DHT22;42154;51.992;5.896;2023-02-14T05:49:57;4.10;99.90
56240;DHT22;42154;51.992;5.896;2023-02-14T05:52:22;4.00;99.90
56240;DHT22;42154;51.992;5.896;2023-02-14T05:54:48;4.10;99.90
56240;DHT22;42154;51.992;5.896;2023-02-14T05:57:14;4.10;99.90
56240;DHT22;42154;51.992;5.896;2023-02-14T05:59:40;4.00;99.90
56240;DHT22;42154;51.992;5.896;2023-02-14T06:02:06;4.00;99.90
56240;DHT22;42154;51.992;5.896;2023-02-14T06:04:31;4.00;99.90
56240;DHT22;42154;51.992;5.896;2023-02-14T06:06:57;4.00;99.90
56240;DHT22;42154;51.992;5.896;2023-02-14T06:09:23;3.90;99.90
56240;DHT22;42154;51.992;5.896;2023-02-14T06:11:49;3.90;99.90
56240;DHT22;42154;51.992;5.896;2023-02-14T06:14:15;3.90;99.90
56240;DHT22;42154;51.992;5.896;2023-02-14T06:16:41;3.90;99.90
56240;DHT22;42154;51.992;5.896;2023-02-14T06:19:07;3.90;99.90
56240;DHT22;42154;51.992;5.896;2023-02-14T06:21:32;3.90;99.90
56240;DHT22;42154;51.992;5.896;2023-02-14T06:23:58;3.90;99.90
56240;DHT22;42154;51.992;5.896;2023-02-14T06:26:24;3.90;99.90
56240;DHT22;42154;51.992;5.896;2023-02-14T06:28:53;3.80;99.90
56240;DHT22;42154;51.992;5.896;2023-02-14T06:31:19;3.90;99.90
56240;DHT22;42154;51.992;5.896;2023-02-14T06:33:45;3.80;99.90
56240;DHT22;42154;51.992;5.896;2023-02-14T06:36:11;3.80;99.90
56240;DHT22;42154;51.992;5.896;2023-02-14T06:38:37;3.80;99.90
56240;DHT22;42154;51.992;5.896;2023-02-14T06:41:07;3.80;99.90
56240;DHT22;42154;51.992;5.896;2023-02-14T06:43:34;3.70;99.90
56240;DHT22;42154;51.992;5.896;2023-02-14T06:46:00;3.80;99.90
56240;DHT22;42154;51.992;5.896;2023-02-14T06:48:26;3.80;99.90
56240;DHT22;42154;51.992;5.896;2023-02-14T06:50:52;3.70;99.90
56240;DHT22;42154;51.992;5.896;2023-02-14T06:53:19;3.70;99.90
56240;DHT22;42154;51.992;5.896;2023-02-14T06:55:45;3.70;99.90
56240;DHT22;42154;51.992;5.896;2023-02-14T06:58:11;3.70;99.90
56240;DHT22;42154;51.992;5.896;2023-02-14T07:00:36;3.60;99.90
56240;DHT22;42154;51.992;5.896;2023-02-14T07:03:04;3.60;99.90
56240;DHT22;42154;51.992;5.896;2023-02-14T07:05:30;3.60;99.90
56240;DHT22;42154;51.992;5.896;2023-02-14T07:07:56;3.60;99.90
56240;DHT22;42154;51.992;5.896;2023-02-14T07:10:22;3.60;99.90
56240;DHT22;42154;51.992;5.896;2023-02-14T07:12:48;3.60;99.90
56240;DHT22;42154;51.992;5.896;2023-02-14T07:15:14;3.50;99.90
56240;DHT22;42154;51.992;5.896;2023-02-14T07:17:40;3.60;99.90
56240;DHT22;42154;51.992;5.896;2023-02-14T07:20:08;3.60;99.90
56240;DHT22;42154;51.992;5.896;2023-02-14T07:22:35;3.60;99.90
56240;DHT22;42154;51.992;5.896;2023-02-14T07:25:01;3.60;99.90
56240;DHT22;42154;51.992;5.896;2023-02-14T07:27:27;3.70;99.90
56240;DHT22;42154;51.992;5.896;2023-02-14T07:29:52;3.70;99.90
56240;DHT22;42154;51.992;5.896;2023-02-14T07:32:18;3.80;99.90
56240;DHT22;42154;51.992;5.896;2023-02-14T07:34:44;3.70;99.90
56240;DHT22;42154;51.992;5.896;2023-02-14T07:37:10;3.70;99.90
56240;DHT22;42154;51.992;5.896;2023-02-14T07:39:35;3.80;99.90
56240;DHT22;42154;51.992;5.896;2023-02-14T07:42:01;3.80;99.90
56240;DHT22;42154;51.992;5.896;2023-02-14T07:44:27;3.80;99.90
56240;DHT22;42154;51.992;5.896;2023-02-14T07:46:52;3.80;99.90
56240;DHT22;42154;51.992;5.896;2023-02-14T07:49:18;3.90;99.90
56240;DHT22;42154;51.992;5.896;2023-02-14T07:51:44;3.90;99.90
56240;DHT22;42154;51.992;5.896;2023-02-14T07:54:10;3.90;99.90
56240;DHT22;42154;51.992;5.896;2023-02-14T07:56:35;3.90;99.90
56240;DHT22;42154;51.992;5.896;2023-02-14T07:59:01;3.90;99.90
56240;DHT22;42154;51.992;5.896;2023-02-14T08:01:27;3.90;99.90
56240;DHT22;42154;51.992;5.896;2023-02-14T08:03:53;4.00;99.90
56240;DHT22;42154;51.992;5.896;2023-02-14T08:06:18;4.00;99.90
56240;DHT22;42154;51.992;5.896;2023-02-14T08:08:45;4.00;99.90
56240;DHT22;42154;51.992;5.896;2023-02-14T08:11:11;4.10;99.90
56240;DHT22;42154;51.992;5.896;2023-02-14T08:13:36;4.10;99.90
56240;DHT22;42154;51.992;5.896;2023-02-14T08:16:02;4.10;99.90
56240;DHT22;42154;51.992;5.896;2023-02-14T08:18:38;4.20;99.90
56240;DHT22;42154;51.992;5.896;2023-02-14T08:21:06;4.20;99.90
56240;DHT22;42154;51.992;5.896;2023-02-14T08:23:32;4.30;99.90
56240;DHT22;42154;51.992;5.896;2023-02-14T08:25:59;4.30;99.90
56240;DHT22;42154;51.992;5.896;2023-02-14T08:28:25;4.30;99.90
56240;DHT22;42154;51.992;5.896;2023-02-14T08:30:51;4.40;99.90
56240;DHT22;42154;51.992;5.896;2023-02-14T08:33:18;4.50;99.90
56240;DHT22;42154;51.992;5.896;2023-02-14T08:35:43;4.50;99.90
56240;DHT22;42154;51.992;5.896;2023-02-14T08:38:09;4.50;99.90
56240;DHT22;42154;51.992;5.896;2023-02-14T08:40:35;4.60;99.90
56240;DHT22;42154;51.992;5.896;2023-02-14T08:43:03;4.60;99.90
56240;DHT22;42154;51.992;5.896;2023-02-14T08:45:29;4.70;99.90
56240;DHT22;42154;51.992;5.896;2023-02-14T08:48:03;4.70;99.90
56240;DHT22;42154;51.992;5.896;2023-02-14T08:50:29;4.80;99.90
56240;DHT22;42154;51.992;5.896;2023-02-14T08:52:55;4.80;99.90
56240;DHT22;42154;51.992;5.896;2023-02-14T08:55:21;4.90;99.90
56240;DHT22;42154;51.992;5.896;2023-02-14T08:57:47;4.90;99.90
56240;DHT22;42154;51.992;5.896;2023-02-14T09:00:14;5.00;99.90
56240;DHT22;42154;51.992;5.896;2023-02-14T09:02:40;5.00;99.90
56240;DHT22;42154;51.992;5.896;2023-02-14T09:05:06;5.00;99.90
56240;DHT22;42154;51.992;5.896;2023-02-14T09:07:34;5.10;99.90
56240;DHT22;42154;51.992;5.896;2023-02-14T09:10:00;5.20;99.90
56240;DHT22;42154;51.992;5.896;2023-02-14T09:12:25;5.20;99.90
56240;DHT22;42154;51.992;5.896;2023-02-14T09:14:51;5.30;99.90
56240;DHT22;42154;51.992;5.896;2023-02-14T09:17:17;5.30;99.90
56240;DHT22;42154;51.992;5.896;2023-02-14T09:19:43;5.40;99.90
56240;DHT22;42154;51.992;5.896;2023-02-14T09:22:10;5.40;99.90
56240;DHT22;42154;51.992;5.896;2023-02-14T09:24:37;5.50;99.90
56240;DHT22;42154;51.992;5.896;2023-02-14T09:27:04;5.50;99.90
56240;DHT22;42154;51.992;5.896;2023-02-14T09:29:30;5.60;99.90
56240;DHT22;42154;51.992;5.896;2023-02-14T09:31:58;5.70;99.90
56240;DHT22;42154;51.992;5.896;2023-02-14T09:34:26;5.70;99.90
56240;DHT22;42154;51.992;5.896;2023-02-14T09:37:11;5.80;99.90
56240;DHT22;42154;51.992;5.896;2023-02-14T09:39:37;5.80;99.90
56240;DHT22;42154;51.992;5.896;2023-02-14T09:42:26;5.80;99.90
56240;DHT22;42154;51.992;5.896;2023-02-14T09:45:13;6.00;99.90
56240;DHT22;42154;51.992;5.896;2023-02-14T09:47:44;6.00;99.90
56240;DHT22;42154;51.992;5.896;2023-02-14T09:50:32;6.10;99.90
56240;DHT22;42154;51.992;5.896;2023-02-14T09:53:07;6.20;99.90
56240;DHT22;42154;51.992;5.896;2023-02-14T09:58:54;6.30;99.90
56240;DHT22;42154;51.992;5.896;2023-02-14T10:07:30;6.50;99.90
56240;DHT22;42154;51.992;5.896;2023-02-14T10:10:37;6.60;99.90
56240;DHT22;42154;51.992;5.896;2023-02-14T10:13:16;6.70;99.90
56240;DHT22;42154;51.992;5.896;2023-02-14T10:16:26;6.70;99.90
56240;DHT22;42154;51.992;5.896;2023-02-14T10:18:51;6.90;99.90
56240;DHT22;42154;51.992;5.896;2023-02-14T10:21:40;6.90;99.90
56240;DHT22;42154;51.992;5.896;2023-02-14T10:26:52;7.00;99.90
56240;DHT22;42154;51.992;5.896;2023-02-14T10:29:22;7.10;99.90
56240;DHT22;42154;51.992;5.896;2023-02-14T10:32:02;7.10;99.90
56240;DHT22;42154;51.992;5.896;2023-02-14T10:34:49;7.20;99.90
56240;DHT22;42154;51.992;5.896;2023-02-14T10:50:34;7.60;99.90
56240;DHT22;42154;51.992;5.896;2023-02-14T10:55:58;7.70;99.90
56240;DHT22;42154;51.992;5.896;2023-02-14T10:58:28;7.70;99.90
56240;DHT22;42154;51.992;5.896;2023-02-14T11:01:09;7.80;99.90
56240;DHT22;42154;51.992;5.896;2023-02-14T11:03:39;7.90;99.90
56240;DHT22;42154;51.992;5.896;2023-02-14T11:06:09;7.90;99.90
56240;DHT22;42154;51.992;5.896;2023-02-14T11:08:38;7.90;99.90
56240;DHT22;42154;51.992;5.896;2023-02-14T11:13:46;8.10;99.90
56240;DHT22;42154;51.992;5.896;2023-02-14T11:16:31;8.20;99.90
56240;DHT22;42154;51.992;5.896;2023-02-14T11:19:08;8.30;99.90
56240;DHT22;42154;51.992;5.896;2023-02-14T11:21:38;8.30;99.90
56240;DHT22;42154;51.992;5.896;2023-02-14T11:32:21;8.60;99.90
56240;DHT22;42154;51.992;5.896;2023-02-14T11:37:35;8.70;99.90
56240;DHT22;42154;51.992;5.896;2023-02-14T11:40:04;8.80;99.90
56240;DHT22;42154;51.992;5.896;2023-02-14T11:42:43;8.80;99.90
56240;DHT22;42154;51.992;5.896;2023-02-14T11:45:31;8.90;99.90
56240;DHT22;42154;51.992;5.896;2023-02-14T11:53:25;9.10;99.90
56240;DHT22;42154;51.992;5.896;2023-02-14T11:55:56;9.10;99.90
56240;DHT22;42154;51.992;5.896;2023-02-14T11:58:39;9.20;99.90
56240;DHT22;42154;51.992;5.896;2023-02-14T12:01:08;9.30;99.90
56240;DHT22;42154;51.992;5.896;2023-02-14T12:03:43;9.40;99.90
56240;DHT22;42154;51.992;5.896;2023-02-14T12:06:11;9.50;99.90
56240;DHT22;42154;51.992;5.896;2023-02-14T12:08:37;9.50;99.90
56240;DHT22;42154;51.992;5.896;2023-02-14T12:11:22;9.50;99.90
56240;DHT22;42154;51.992;5.896;2023-02-14T12:13:53;9.60;99.90
56240;DHT22;42154;51.992;5.896;2023-02-14T12:16:34;9.70;99.90
56240;DHT22;42154;51.992;5.896;2023-02-14T12:19:12;9.70;99.90
56240;DHT22;42154;51.992;5.896;2023-02-14T12:27:26;9.80;99.90
56240;DHT22;42154;51.992;5.896;2023-02-14T12:30:03;9.90;99.90
56240;DHT22;42154;51.992;5.896;2023-02-14T12:32:33;9.90;99.90
56240;DHT22;42154;51.992;5.896;2023-02-14T12:35:34;10.00;99.90
56240;DHT22;42154;51.992;5.896;2023-02-14T12:43:50;10.20;99.90
56240;DHT22;42154;51.992;5.896;2023-02-14T13:02:59;10.50;99.90
56240;DHT22;42154;51.992;5.896;2023-02-14T13:05:52;10.60;99.90
56240;DHT22;42154;51.992;5.896;2023-02-14T13:08:48;10.60;99.90
56240;DHT22;42154;51.992;5.896;2023-02-14T13:16:54;10.70;99.90
56240;DHT22;42154;51.992;5.896;2023-02-14T13:19:44;10.80;99.90
56240;DHT22;42154;51.992;5.896;2023-02-14T13:22:17;10.80;99.90
56240;DHT22;42154;51.992;5.896;2023-02-14T13:24:47;10.80;99.90
56240;DHT22;42154;51.992;5.896;2023-02-14T13:27:20;10.90;99.90
56240;DHT22;42154;51.992;5.896;2023-02-14T13:29:49;10.90;99.90
56240;DHT22;42154;51.992;5.896;2023-02-14T13:32:19;11.00;99.90
56240;DHT22;42154;51.992;5.896;2023-02-14T13:34:47;11.00;99.90
56240;DHT22;42154;51.992;5.896;2023-02-14T13:37:19;11.00;99.90
56240;DHT22;42154;51.992;5.896;2023-02-14T13:39:58;11.10;99.90
56240;DHT22;42154;51.992;5.896;2023-02-14T13:42:50;11.20;99.90
56240;DHT22;42154;51.992;5.896;2023-02-14T13:58:49;11.20;99.90
56240;DHT22;42154;51.992;5.896;2023-02-14T14:06:27;11.30;99.90
56240;DHT22;42154;51.992;5.896;2023-02-14T14:08:54;11.40;99.90
56240;DHT22;42154;51.992;5.896;2023-02-14T14:14:00;11.40;99.90
56240;DHT22;42154;51.992;5.896;2023-02-14T14:16:34;11.50;99.90
56240;DHT22;42154;51.992;5.896;2023-02-14T14:24:32;11.50;99.90
56240;DHT22;42154;51.992;5.896;2023-02-14T14:32:18;11.50;99.90
56240;DHT22;42154;51.992;5.896;2023-02-14T14:34:53;11.50;99.90
56240;DHT22;42154;51.992;5.896;2023-02-14T14:37:22;11.50;99.90
56240;DHT22;42154;51.992;5.896;2023-02-14T14:39:53;11.50;99.90
56240;DHT22;42154;51.992;5.896;2023-02-14T14:42:20;11.60;99.90
56240;DHT22;42154;51.992;5.896;2023-02-14T14:44:53;11.60;99.90
56240;DHT22;42154;51.992;5.896;2023-02-14T14:47:23;11.60;99.90
56240;DHT22;42154;51.992;5.896;2023-02-14T14:49:58;11.60;99.90
56240;DHT22;42154;51.992;5.896;2023-02-14T14:52:40;11.60;99.90
56240;DHT22;42154;51.992;5.896;2023-02-14T14:55:19;11.60;99.90
56240;DHT22;42154;51.992;5.896;2023-02-14T14:57:50;11.60;99.90
56240;DHT22;42154;51.992;5.896;2023-02-14T15:00:23;11.60;99.90
56240;DHT22;42154;51.992;5.896;2023-02-14T15:05:28;11.50;99.90
56240;DHT22;42154;51.992;5.896;2023-02-14T15:07:54;11.50;99.90
56240;DHT22;42154;51.992;5.896;2023-02-14T15:10:26;11.50;99.90
56240;DHT22;42154;51.992;5.896;2023-02-14T15:12:54;11.60;99.90
56240;DHT22;42154;51.992;5.896;2023-02-14T15:15:40;11.50;99.90
56240;DHT22;42154;51.992;5.896;2023-02-14T15:18:07;11.50;99.90
56240;DHT22;42154;51.992;5.896;2023-02-14T15:20:33;11.50;99.90
56240;DHT22;42154;51.992;5.896;2023-02-14T15:23:01;11.50;99.90
56240;DHT22;42154;51.992;5.896;2023-02-14T15:25:33;11.50;99.90
56240;DHT22;42154;51.992;5.896;2023-02-14T15:28:00;11.50;99.90
56240;DHT22;42154;51.992;5.896;2023-02-14T15:30:32;11.50;99.90
56240;DHT22;42154;51.992;5.896;2023-02-14T15:33:00;11.50;99.90
56240;DHT22;42154;51.992;5.896;2023-02-14T15:35:33;11.40;99.90
56240;DHT22;42154;51.992;5.896;2023-02-14T15:38:02;11.40;99.90
56240;DHT22;42154;51.992;5.896;2023-02-14T15:40:31;11.40;99.90
56240;DHT22;42154;51.992;5.896;2023-02-14T15:43:11;11.40;99.90
56240;DHT22;42154;51.992;5.896;2023-02-14T15:45:38;11.40;99.90
56240;DHT22;42154;51.992;5.896;2023-02-14T15:48:16;11.30;99.90
56240;DHT22;42154;51.992;5.896;2023-02-14T15:55:46;11.30;99.90
56240;DHT22;42154;51.992;5.896;2023-02-14T15:58:27;11.20;99.90
56240;DHT22;42154;51.992;5.896;2023-02-14T16:00:53;11.20;99.90
56240;DHT22;42154;51.992;5.896;2023-02-14T16:03:22;11.10;99.90
56240;DHT22;42154;51.992;5.896;2023-02-14T16:05:49;11.10;99.90
56240;DHT22;42154;51.992;5.896;2023-02-14T16:08:38;11.00;99.90
56240;DHT22;42154;51.992;5.896;2023-02-14T16:11:26;11.00;99.90
56240;DHT22;42154;51.992;5.896;2023-02-14T16:13:52;10.90;99.90
56240;DHT22;42154;51.992;5.896;2023-02-14T16:16:18;10.90;99.90
56240;DHT22;42154;51.992;5.896;2023-02-14T16:18:46;10.80;99.90
56240;DHT22;42154;51.992;5.896;2023-02-14T16:23:42;10.70;99.90
56240;DHT22;42154;51.992;5.896;2023-02-14T16:26:09;10.70;99.90
56240;DHT22;42154;51.992;5.896;2023-02-14T16:28:34;10.60;99.90
56240;DHT22;42154;51.992;5.896;2023-02-14T16:31:02;10.60;99.90
56240;DHT22;42154;51.992;5.896;2023-02-14T16:33:33;10.50;99.90
56240;DHT22;42154;51.992;5.896;2023-02-14T16:38:39;10.40;99.90
56240;DHT22;42154;51.992;5.896;2023-02-14T16:41:06;10.30;99.90
56240;DHT22;42154;51.992;5.896;2023-02-14T16:43:37;10.30;99.90
56240;DHT22;42154;51.992;5.896;2023-02-14T16:46:02;10.20;99.90
56240;DHT22;42154;51.992;5.896;2023-02-14T16:48:28;10.10;99.90
56240;DHT22;42154;51.992;5.896;2023-02-14T16:50:54;10.00;99.90
56240;DHT22;42154;51.992;5.896;2023-02-14T16:53:24;10.00;99.90
56240;DHT22;42154;51.992;5.896;2023-02-14T16:55:53;9.90;99.90
56240;DHT22;42154;51.992;5.896;2023-02-14T16:58:21;9.80;99.90
56240;DHT22;42154;51.992;5.896;2023-02-14T17:00:47;9.80;99.90
56240;DHT22;42154;51.992;5.896;2023-02-14T17:03:13;9.70;99.90
56240;DHT22;42154;51.992;5.896;2023-02-14T17:05:39;9.60;99.90
56240;DHT22;42154;51.992;5.896;2023-02-14T17:08:06;9.50;99.90
56240;DHT22;42154;51.992;5.896;2023-02-14T17:10:34;9.40;99.90
56240;DHT22;42154;51.992;5.896;2023-02-14T17:13:01;9.40;99.90
56240;DHT22;42154;51.992;5.896;2023-02-14T17:15:29;9.30;99.90
56240;DHT22;42154;51.992;5.896;2023-02-14T17:18:00;9.30;99.90
56240;DHT22;42154;51.992;5.896;2023-02-14T17:20:28;9.20;99.90
56240;DHT22;42154;51.992;5.896;2023-02-14T17:22:54;9.20;99.90
56240;DHT22;42154;51.992;5.896;2023-02-14T17:25:21;9.10;99.90
56240;DHT22;42154;51.992;5.896;2023-02-14T17:27:46;9.00;99.90
56240;DHT22;42154;51.992;5.896;2023-02-14T17:30:13;9.00;99.90
56240;DHT22;42154;51.992;5.896;2023-02-14T17:32:39;8.90;99.90
56240;DHT22;42154;51.992;5.896;2023-02-14T17:35:06;8.90;99.90
56240;DHT22;42154;51.992;5.896;2023-02-14T17:37:36;8.80;99.90
56240;DHT22;42154;51.992;5.896;2023-02-14T17:40:04;8.70;99.90
56240;DHT22;42154;51.992;5.896;2023-02-14T17:42:34;8.70;99.90
56240;DHT22;42154;51.992;5.896;2023-02-14T17:45:00;8.70;99.90
56240;DHT22;42154;51.992;5.896;2023-02-14T17:47:27;8.60;99.90
56240;DHT22;42154;51.992;5.896;2023-02-14T17:49:54;8.60;99.90
56240;DHT22;42154;51.992;5.896;2023-02-14T17:52:19;8.40;99.90
56240;DHT22;42154;51.992;5.896;2023-02-14T17:54:46;8.50;99.90
56240;DHT22;42154;51.992;5.896;2023-02-14T17:57:12;8.40;99.90
56240;DHT22;42154;51.992;5.896;2023-02-14T17:59:38;8.40;99.90
56240;DHT22;42154;51.992;5.896;2023-02-14T18:02:04;8.30;99.90
56240;DHT22;42154;51.992;5.896;2023-02-14T18:04:30;8.30;99.90
56240;DHT22;42154;51.992;5.896;2023-02-14T18:06:59;8.20;99.90
56240;DHT22;42154;51.992;5.896;2023-02-14T18:09:25;8.10;99.90
56240;DHT22;42154;51.992;5.896;2023-02-14T18:11:50;8.10;99.90
56240;DHT22;42154;51.992;5.896;2023-02-14T18:14:16;8.10;99.90
56240;DHT22;42154;51.992;5.896;2023-02-14T18:16:42;8.10;99.90
56240;DHT22;42154;51.992;5.896;2023-02-14T18:19:08;8.00;99.90
56240;DHT22;42154;51.992;5.896;2023-02-14T18:21:36;8.00;99.90
56240;DHT22;42154;51.992;5.896;2023-02-14T18:24:05;7.90;99.90
56240;DHT22;42154;51.992;5.896;2023-02-14T18:26:32;7.90;99.90
56240;DHT22;42154;51.992;5.896;2023-02-14T18:28:58;7.90;99.90
56240;DHT22;42154;51.992;5.896;2023-02-14T18:31:24;7.80;99.90
56240;DHT22;42154;51.992;5.896;2023-02-14T18:33:50;7.80;99.90
56240;DHT22;42154;51.992;5.896;2023-02-14T18:36:19;7.70;99.90
56240;DHT22;42154;51.992;5.896;2023-02-14T18:38:47;7.70;99.90
56240;DHT22;42154;51.992;5.896;2023-02-14T18:41:15;7.70;99.90
56240;DHT22;42154;51.992;5.896;2023-02-14T18:43:41;7.60;99.90
56240;DHT22;42154;51.992;5.896;2023-02-14T18:46:13;7.50;99.90